This is the latest recevied weather packets stored in our database for station/object KI4HRG. If no packets are shown the sender has not sent any weather packets the latest 10 day(s).
| Time | Temp. | Humidity | Pressure | Rain* | Wind** | Luminosity | Snow |
|---|---|---|---|---|---|---|---|
| 1787417344 | 33.89° C | 53% | 1016.3 hPa | 0 mm | - | 652 W/m² | - |
| 1787417040 | 33.89° C | 49% | 1016.4 hPa | 0 mm | - | 668 W/m² | - |
| 1787416736 | 33.89° C | 50% | 1016.4 hPa | 0 mm | - | 658 W/m² | - |
| 1787416432 | 33.89° C | 52% | 1016.3 hPa | 0 mm | - | 690 W/m² | - |
| 1787416127 | 33.89° C | 56% | 1016.4 hPa | 0 mm | - | 702 W/m² | - |
| 1787415822 | 33.33° C | 58% | 1016.4 hPa | 0 mm | - | 694 W/m² | - |
| 1787415521 | 33.33° C | 55% | 1016.3 hPa | 0 mm | - | 713 W/m² | - |
| 1787415216 | 33.89° C | 55% | 1016.4 hPa | 0 mm | - | 725 W/m² | - |
| 1787414912 | 33.89° C | 56% | 1016.4 hPa | 0 mm | - | 734 W/m² | - |
| 1787414607 | 33.33° C | 57% | 1016.6 hPa | 0 mm | - | 724 W/m² | - |
| 1787414306 | 32.78° C | 57% | 1016.7 hPa | 0 mm | - | 719 W/m² | - |
| 1787414001 | 33.33° C | 57% | 1016.6 hPa | 0 mm | - | 776 W/m² | - |
| 1787413695 | 32.78° C | 57% | 1016.7 hPa | 0 mm | - | 737 W/m² | - |
| 1787413395 | 32.22° C | 62% | 1016.6 hPa | 0 mm | - | 718 W/m² | - |
| 1787413092 | 32.22° C | 62% | 1016.6 hPa | 0 mm | - | 718 W/m² | - |
| 1787412788 | 32.78° C | 61% | 1016.6 hPa | 0 mm | - | 736 W/m² | - |
| 1787412486 | 32.22° C | 62% | 1016.6 hPa | 0 mm | - | 730 W/m² | - |
| 1787412183 | 32.22° C | 67% | 1016.6 hPa | 0 mm | - | 732 W/m² | - |
| 1787411575 | 31.67° C | 72% | 1016.4 hPa | 0 mm | - | 654 W/m² | - |
| 1787411270 | 30.56° C | 74% | 1016.4 hPa | 0 mm | - | 665 W/m² | - |
| 1787410966 | 31.67° C | 73% | 1016.5 hPa | 0 mm | - | 673 W/m² | - |
| 1787410662 | 30.56° C | 75% | 1016.6 hPa | 0 mm | - | 648 W/m² | - |
| 1787410358 | 31.11° C | 75% | 1016.4 hPa | 0 mm | - | 636 W/m² | - |
| 1787410052 | 30.56° C | 75% | 1016.6 hPa | 0 mm | - | 606 W/m² | - |
| 1787409749 | 30.56° C | 75% | 1016.7 hPa | 0 mm | - | 589 W/m² | - |
* Rain latest hour (hover to see other rain measurements)
** Current wind speed in m/s (hover to see current wind gust speed)